createdAt,value
2023-03-06T00:00:54.201Z,37.06
2023-03-06T00:03:22.287Z,37.71
2023-03-06T00:05:49.223Z,36.64
2023-03-06T00:08:16.074Z,36.98
2023-03-06T00:10:42.890Z,37.58
2023-03-06T00:13:13.628Z,37.57
2023-03-06T00:15:41.460Z,37.93
2023-03-06T00:18:08.360Z,37.39
2023-03-06T00:20:35.346Z,37.21
2023-03-06T00:23:02.874Z,37.45
2023-03-06T00:25:29.715Z,37.18
2023-03-06T00:27:56.594Z,38.65
2023-03-06T00:30:25.258Z,38.23
2023-03-06T00:32:53.230Z,37.77
2023-03-06T00:35:20.412Z,37.69
2023-03-06T00:37:47.634Z,37.17
2023-03-06T00:40:17.870Z,37.69
2023-03-06T00:42:45.277Z,37.50
2023-03-06T00:45:12.730Z,37.64
2023-03-06T00:47:39.992Z,37.13
2023-03-06T00:50:08.185Z,36.72
2023-03-06T00:52:34.857Z,37.24
2023-03-06T00:55:01.728Z,37.06
2023-03-06T00:57:28.420Z,36.84
2023-03-06T00:59:55.162Z,36.98
2023-03-06T01:02:22.258Z,37.54
2023-03-06T01:04:49.026Z,36.85
2023-03-06T01:07:15.783Z,36.85
2023-03-06T01:09:42.813Z,36.71
2023-03-06T01:12:09.911Z,37.57
2023-03-06T01:14:36.824Z,37.35
2023-03-06T01:17:03.653Z,37.81
2023-03-06T01:19:30.676Z,38.12
2023-03-06T01:21:57.559Z,38.45
2023-03-06T01:24:25.881Z,38.44
2023-03-06T01:26:56.383Z,37.85
2023-03-06T01:29:23.179Z,38.14
2023-03-06T01:31:50.089Z,38.01
2023-03-06T01:34:16.980Z,38.63
2023-03-06T01:36:43.777Z,38.92
2023-03-06T01:39:10.742Z,37.95
2023-03-06T01:41:37.550Z,38.51
2023-03-06T01:44:04.418Z,37.75
2023-03-06T01:46:42.327Z,37.94
2023-03-06T01:49:15.524Z,38.56
2023-03-06T01:51:53.704Z,39.40
2023-03-06T01:54:25.514Z,38.64
2023-03-06T01:56:56.801Z,39.15
2023-03-06T01:59:26.903Z,39.26
2023-03-06T02:01:54.876Z,39.44
2023-03-06T02:04:21.956Z,38.97
2023-03-06T02:06:48.724Z,38.75
2023-03-06T02:09:16.524Z,39.34
2023-03-06T02:11:44.376Z,39.49
2023-03-06T02:14:14.587Z,39.70
2023-03-06T02:16:41.902Z,39.42
2023-03-06T02:19:22.143Z,40.08
2023-03-06T02:21:49.952Z,40.06
2023-03-06T02:24:30.187Z,39.65
2023-03-06T02:26:59.214Z,40.63
2023-03-06T02:29:29.563Z,40.32
2023-03-06T02:32:00.542Z,40.53
2023-03-06T02:34:28.024Z,40.15
2023-03-06T02:37:05.152Z,40.32
2023-03-06T02:39:34.535Z,40.65
2023-03-06T02:42:01.255Z,39.75
2023-03-06T02:44:32.974Z,40.56
2023-03-06T02:46:59.801Z,39.99
2023-03-06T02:49:26.683Z,41.02
2023-03-06T02:51:53.544Z,40.35
2023-03-06T02:54:20.302Z,40.76
2023-03-06T02:56:47.246Z,40.28
2023-03-06T02:59:14.041Z,41.28
2023-03-06T03:01:41.107Z,41.18
2023-03-06T03:04:08.669Z,40.98
2023-03-06T03:06:36.434Z,40.82
2023-03-06T03:09:03.795Z,41.33
2023-03-06T03:11:30.713Z,41.11
2023-03-06T03:13:57.691Z,41.06
2023-03-06T03:16:27.213Z,41.20
2023-03-06T03:18:57.845Z,42.08
2023-03-06T03:21:26.183Z,41.09
2023-03-06T03:23:54.604Z,41.32
2023-03-06T03:26:22.444Z,41.11
2023-03-06T03:28:57.262Z,40.78
2023-03-06T03:31:24.184Z,41.81
2023-03-06T03:33:51.038Z,41.94
2023-03-06T03:36:19.208Z,42.30
2023-03-06T03:38:47.431Z,42.20
2023-03-06T03:41:14.623Z,41.15
2023-03-06T03:43:42.970Z,42.29
2023-03-06T03:46:10.618Z,41.28
2023-03-06T03:48:38.432Z,40.98
2023-03-06T03:51:11.639Z,41.30
2023-03-06T03:53:43.225Z,41.56
2023-03-06T03:56:13.263Z,41.50
2023-03-06T03:58:48.888Z,41.47
2023-03-06T04:01:16.159Z,41.30
2023-03-06T04:03:43.688Z,40.99
2023-03-06T04:06:11.692Z,41.36
2023-03-06T04:08:39.459Z,42.46
2023-03-06T04:11:06.456Z,42.50
2023-03-06T04:13:33.303Z,41.99
2023-03-06T04:16:01.416Z,42.22
2023-03-06T04:18:30.229Z,41.88
2023-03-06T04:21:01.130Z,41.13
2023-03-06T04:23:28.312Z,41.76
2023-03-06T04:25:55.465Z,41.51
2023-03-06T04:28:22.808Z,41.37
2023-03-06T04:30:50.373Z,42.24
2023-03-06T04:33:18.203Z,41.36
2023-03-06T04:35:45.102Z,40.99
2023-03-06T04:38:18.324Z,41.90
2023-03-06T04:40:45.919Z,41.11
2023-03-06T04:43:12.760Z,41.83
2023-03-06T04:45:39.620Z,42.20
2023-03-06T04:48:06.658Z,41.48
2023-03-06T04:50:33.426Z,41.63
2023-03-06T04:53:01.981Z,41.69
2023-03-06T04:55:29.006Z,40.89
2023-03-06T04:57:57.254Z,41.06
2023-03-06T05:00:30.488Z,41.90
2023-03-06T05:02:59.519Z,41.89
2023-03-06T05:05:27.159Z,41.60
2023-03-06T05:07:54.088Z,42.16
2023-03-06T05:10:21.371Z,41.82
2023-03-06T05:12:48.250Z,41.15
2023-03-06T05:15:14.960Z,41.48
2023-03-06T05:17:41.694Z,40.98
2023-03-06T05:20:09.752Z,41.46
2023-03-06T05:22:37.566Z,41.44
2023-03-06T05:25:05.010Z,41.18
2023-03-06T05:27:32.063Z,41.47
2023-03-06T05:29:58.842Z,41.15
2023-03-06T05:32:25.508Z,40.72
2023-03-06T05:34:52.312Z,41.18
2023-03-06T05:37:18.972Z,41.06
2023-03-06T05:39:46.167Z,41.10
2023-03-06T05:42:12.789Z,40.18
2023-03-06T05:44:39.746Z,40.25
2023-03-06T05:47:06.351Z,40.87
2023-03-06T05:49:36.158Z,40.48
2023-03-06T05:52:06.134Z,39.99
2023-03-06T05:54:33.511Z,40.23
2023-03-06T05:57:00.167Z,40.19
2023-03-06T05:59:28.597Z,39.96
2023-03-06T06:01:55.647Z,39.34
2023-03-06T06:04:23.129Z,39.71
2023-03-06T06:06:57.067Z,38.89
2023-03-06T06:09:24.154Z,38.88
2023-03-06T06:11:54.770Z,38.50
2023-03-06T06:14:21.799Z,38.46
2023-03-06T06:16:48.584Z,39.88
2023-03-06T06:19:18.736Z,39.07
2023-03-06T06:21:47.143Z,40.05
2023-03-06T06:24:14.290Z,40.94
2023-03-06T06:26:41.119Z,40.21
2023-03-06T06:29:07.949Z,40.41
2023-03-06T06:31:36.751Z,39.24
2023-03-06T06:34:06.676Z,41.49
2023-03-06T06:36:33.562Z,42.57
2023-03-06T06:39:00.415Z,41.03
2023-03-06T06:41:42.752Z,38.56
2023-03-06T06:44:16.122Z,38.66
2023-03-06T06:49:32.713Z,37.78
2023-03-06T06:51:59.638Z,37.78
2023-03-06T06:54:26.489Z,38.68
2023-03-06T06:56:53.486Z,38.71
2023-03-06T06:59:20.556Z,38.39
2023-03-06T07:01:47.258Z,37.95
2023-03-06T07:04:14.443Z,37.23
2023-03-06T07:06:41.813Z,37.30
2023-03-06T07:09:08.474Z,37.31
2023-03-06T07:11:35.135Z,37.30
2023-03-06T07:14:02.062Z,36.84
2023-03-06T07:16:28.686Z,36.56
2023-03-06T07:18:55.397Z,36.67
2023-03-06T07:21:22.153Z,36.26
2023-03-06T07:23:48.907Z,36.32
2023-03-06T07:26:15.583Z,35.69
2023-03-06T07:28:51.916Z,35.41
2023-03-06T07:31:23.755Z,35.22
2023-03-06T07:33:51.017Z,34.75
2023-03-06T07:36:17.965Z,34.83
2023-03-06T07:38:45.657Z,35.05
2023-03-06T07:41:13.733Z,34.69
2023-03-06T07:43:41.393Z,34.52
2023-03-06T07:46:08.224Z,34.46
2023-03-06T07:48:35.565Z,34.47
2023-03-06T07:51:03.383Z,33.81
2023-03-06T07:53:30.308Z,33.75
2023-03-06T07:55:57.258Z,34.67
2023-03-06T07:58:24.720Z,33.95
2023-03-06T08:00:51.681Z,33.98
2023-03-06T08:03:18.932Z,34.24
2023-03-06T08:05:45.702Z,33.53
2023-03-06T08:08:12.790Z,33.29
2023-03-06T08:10:39.392Z,33.14
2023-03-06T08:13:06.053Z,33.39
2023-03-06T08:15:32.791Z,32.85
2023-03-06T08:17:59.451Z,33.13
2023-03-06T08:20:26.362Z,33.10
2023-03-06T08:22:52.926Z,32.42
2023-03-06T08:25:19.744Z,32.20
2023-03-06T08:27:47.433Z,32.06
2023-03-06T08:30:14.694Z,31.74
2023-03-06T08:32:41.476Z,32.22
2023-03-06T08:35:08.449Z,32.06
2023-03-06T08:37:35.177Z,31.12
2023-03-06T08:40:04.872Z,31.40
2023-03-06T08:42:31.938Z,31.09
2023-03-06T08:44:58.610Z,31.36
2023-03-06T08:47:25.287Z,30.92
2023-03-06T08:49:52.055Z,31.22
2023-03-06T08:52:19.920Z,31.14
2023-03-06T08:54:47.268Z,31.06
2023-03-06T08:57:13.895Z,31.41
2023-03-06T08:59:42.111Z,30.49
2023-03-06T09:02:12.444Z,30.81
2023-03-06T09:04:39.041Z,31.16
2023-03-06T09:07:05.851Z,30.74
2023-03-06T09:09:32.513Z,31.39
2023-03-06T09:11:59.121Z,30.18
2023-03-06T09:14:25.779Z,30.58
2023-03-06T09:16:52.558Z,30.28
2023-03-06T09:19:19.213Z,30.32
2023-03-06T09:21:45.879Z,30.10
2023-03-06T09:24:12.574Z,29.64
2023-03-06T09:26:45.936Z,29.03
2023-03-06T09:29:16.321Z,28.91
2023-03-06T09:31:43.241Z,28.84
2023-03-06T09:34:09.985Z,28.42
2023-03-06T09:36:53.307Z,28.67
2023-03-06T09:39:21.891Z,28.83
2023-03-06T09:41:50.193Z,28.68
2023-03-06T09:44:19.095Z,27.85
2023-03-06T09:46:45.732Z,28.55
2023-03-06T09:49:18.482Z,28.28
2023-03-06T09:51:51.796Z,28.49
2023-03-06T09:54:23.434Z,28.16
2023-03-06T09:56:50.627Z,26.54
2023-03-06T09:59:21.711Z,27.36
2023-03-06T10:01:59.067Z,27.66
2023-03-06T10:04:35.298Z,27.54
2023-03-06T10:07:34.729Z,27.16
2023-03-06T10:10:04.068Z,27.75
2023-03-06T10:12:33.806Z,27.19
2023-03-06T10:15:26.634Z,26.64
2023-03-06T10:17:53.677Z,26.75
2023-03-06T10:20:34.642Z,26.71
2023-03-06T10:23:27.792Z,26.70
2023-03-06T10:26:02.073Z,26.42
2023-03-06T10:28:37.123Z,26.46
2023-03-06T10:31:10.314Z,26.23
2023-03-06T10:33:40.131Z,26.34
2023-03-06T10:36:06.824Z,25.64
2023-03-06T10:38:38.310Z,26.03
2023-03-06T10:41:10.722Z,25.79
2023-03-06T10:43:56.004Z,25.82
2023-03-06T10:46:30.147Z,25.79
2023-03-06T10:48:58.109Z,26.00
2023-03-06T10:51:26.153Z,26.05
2023-03-06T10:53:52.896Z,26.16
2023-03-06T10:56:27.225Z,25.84
2023-03-06T10:59:07.914Z,26.11
2023-03-06T11:01:35.175Z,26.39
2023-03-06T11:04:23.312Z,26.50
2023-03-06T11:07:13.349Z,26.37
2023-03-06T11:09:41.077Z,26.17
2023-03-06T11:12:33.892Z,26.83
2023-03-06T11:15:06.712Z,26.88
2023-03-06T11:17:34.731Z,27.03
2023-03-06T11:20:22.170Z,26.75
2023-03-06T11:22:51.089Z,26.69
2023-03-06T11:25:18.834Z,25.97
2023-03-06T11:27:47.098Z,25.96
2023-03-06T11:30:19.198Z,27.34
2023-03-06T11:32:50.331Z,27.39
2023-03-06T11:35:24.067Z,27.29
2023-03-06T11:37:53.164Z,27.60
2023-03-06T11:40:36.302Z,26.65
2023-03-06T11:43:10.746Z,26.78
2023-03-06T11:45:51.106Z,27.21
2023-03-06T11:48:30.763Z,26.39
2023-03-06T11:50:59.827Z,26.90
2023-03-06T11:53:30.727Z,26.05
2023-03-06T11:55:57.359Z,26.74
2023-03-06T11:58:35.868Z,26.48
2023-03-06T12:01:17.520Z,26.25
2023-03-06T12:04:03.137Z,26.38
2023-03-06T12:06:36.783Z,25.98
2023-03-06T12:09:12.750Z,25.38
2023-03-06T12:11:39.506Z,25.08
2023-03-06T12:14:18.542Z,25.33
2023-03-06T12:17:07.003Z,25.11
2023-03-06T12:19:52.116Z,24.77
2023-03-06T12:22:24.759Z,24.71
2023-03-06T12:25:03.972Z,25.06
2023-03-06T12:27:42.877Z,25.24
2023-03-06T12:30:09.582Z,25.72
2023-03-06T12:32:43.528Z,24.99
2023-03-06T12:35:13.126Z,25.17
2023-03-06T12:37:55.606Z,23.97
2023-03-06T12:40:40.777Z,23.76
2023-03-06T12:43:35.606Z,23.72
2023-03-06T12:46:20.702Z,23.83
2023-03-06T12:48:53.589Z,24.26
2023-03-06T12:51:20.942Z,26.30
2023-03-06T12:53:48.127Z,26.13
2023-03-06T12:56:17.056Z,25.15
2023-03-06T12:58:48.242Z,24.30
2023-03-06T13:01:20.063Z,24.42
2023-03-06T13:04:05.536Z,24.35
2023-03-06T13:06:49.724Z,24.66
2023-03-06T13:09:26.572Z,24.80
2023-03-06T13:12:08.743Z,24.96
2023-03-06T13:14:42.337Z,24.66
2023-03-06T13:17:24.228Z,25.30
2023-03-06T13:20:24.100Z,25.09
2023-03-06T13:22:50.761Z,25.62
2023-03-06T13:25:17.307Z,25.23
2023-03-06T13:27:53.105Z,24.92
2023-03-06T13:30:21.073Z,24.90
2023-03-06T13:32:49.034Z,24.86
2023-03-06T13:35:32.214Z,24.66
2023-03-06T13:37:59.636Z,24.67
2023-03-06T13:40:35.618Z,23.89
2023-03-06T13:43:07.220Z,22.80
2023-03-06T13:45:33.797Z,22.78
2023-03-06T13:48:41.278Z,23.21
2023-03-06T13:50:48.833Z,22.68
2023-03-06T13:53:34.274Z,24.04
2023-03-06T13:56:19.500Z,23.82
2023-03-06T13:58:58.230Z,23.48
2023-03-06T14:01:32.850Z,24.27
2023-03-06T14:04:02.695Z,24.20
2023-03-06T14:06:35.026Z,23.79
2023-03-06T14:09:03.863Z,24.03
2023-03-06T14:11:31.562Z,23.38
2023-03-06T14:13:58.938Z,24.37
2023-03-06T14:16:29.161Z,24.56
2023-03-06T14:19:00.737Z,24.62
2023-03-06T14:21:34.150Z,24.13
2023-03-06T14:24:02.899Z,22.98
2023-03-06T14:26:33.946Z,23.29
2023-03-06T14:29:01.438Z,23.44
2023-03-06T14:31:32.689Z,24.06
2023-03-06T14:34:05.093Z,23.49
2023-03-06T14:36:34.710Z,23.61
2023-03-06T14:39:04.187Z,23.64
2023-03-06T14:41:32.848Z,25.04
2023-03-06T14:44:16.745Z,24.69
2023-03-06T14:46:47.632Z,25.56
2023-03-06T14:49:15.384Z,25.76
2023-03-06T14:51:43.825Z,26.16
2023-03-06T14:54:15.021Z,26.08
2023-03-06T14:56:43.063Z,26.02
2023-03-06T14:59:12.646Z,26.36
2023-03-06T15:01:44.103Z,26.63
2023-03-06T15:04:17.273Z,26.69
2023-03-06T15:06:44.989Z,27.05
2023-03-06T15:09:14.654Z,27.10
2023-03-06T15:12:13.718Z,26.95
2023-03-06T15:14:41.676Z,27.16
2023-03-06T15:17:20.829Z,27.27
2023-03-06T15:19:48.857Z,27.15
2023-03-06T15:22:21.429Z,26.92
2023-03-06T15:24:48.217Z,27.05
2023-03-06T15:27:17.756Z,26.95
2023-03-06T15:29:44.453Z,26.07
2023-03-06T15:32:29.993Z,26.79
2023-03-06T15:35:15.714Z,26.61
2023-03-06T15:37:42.382Z,26.38
2023-03-06T15:40:16.828Z,26.40
2023-03-06T15:42:43.439Z,27.11
2023-03-06T15:45:18.908Z,27.19
2023-03-06T15:47:46.222Z,26.67
2023-03-06T15:50:16.896Z,26.92
2023-03-06T15:52:43.930Z,27.68
2023-03-06T15:55:15.819Z,27.42
2023-03-06T15:57:54.190Z,27.73
2023-03-06T16:00:27.869Z,28.18
2023-03-06T16:02:55.965Z,27.57
2023-03-06T16:05:22.662Z,27.19
2023-03-06T16:07:49.373Z,27.66
2023-03-06T16:10:17.317Z,28.39
2023-03-06T16:12:47.434Z,27.43
2023-03-06T16:15:21.458Z,29.04
2023-03-06T16:17:49.520Z,27.95
2023-03-06T16:20:21.860Z,26.49
2023-03-06T16:22:49.956Z,26.79
2023-03-06T16:25:17.607Z,27.17
2023-03-06T16:27:47.918Z,26.72
2023-03-06T16:30:19.245Z,27.89
2023-03-06T16:32:46.624Z,27.63
2023-03-06T16:35:13.931Z,27.51
2023-03-06T16:37:41.100Z,26.53
2023-03-06T16:40:27.431Z,27.70
2023-03-06T16:42:55.212Z,28.11
2023-03-06T16:45:22.629Z,27.53
2023-03-06T16:47:49.714Z,27.60
2023-03-06T16:50:26.858Z,26.73
2023-03-06T16:52:54.728Z,27.18
2023-03-06T16:55:21.681Z,26.56
2023-03-06T16:57:48.520Z,27.14
2023-03-06T17:00:16.397Z,27.65
2023-03-06T17:02:43.173Z,27.91
2023-03-06T17:05:11.093Z,26.99
2023-03-06T17:07:38.126Z,26.93
2023-03-06T17:10:09.142Z,26.85
2023-03-06T17:12:36.047Z,27.26
2023-03-06T17:15:03.485Z,26.98
2023-03-06T17:17:30.180Z,27.42
2023-03-06T17:19:56.886Z,27.49
2023-03-06T17:22:23.543Z,27.42
2023-03-06T17:24:52.141Z,27.04
2023-03-06T17:27:19.776Z,27.84
2023-03-06T17:29:46.531Z,27.16
2023-03-06T17:32:13.580Z,27.43
2023-03-06T17:34:40.681Z,28.48
2023-03-06T17:37:07.434Z,28.39
2023-03-06T17:39:35.573Z,28.57
2023-03-06T17:42:03.335Z,28.03
2023-03-06T17:44:30.395Z,27.03
2023-03-06T17:46:57.020Z,27.64
2023-03-06T17:49:27.528Z,27.68
2023-03-06T17:51:56.501Z,27.29
2023-03-06T17:54:26.288Z,27.70
2023-03-06T17:56:53.636Z,28.33
2023-03-06T17:59:20.397Z,28.07
2023-03-06T18:01:47.320Z,27.34
2023-03-06T18:04:14.173Z,27.06
2023-03-06T18:06:42.145Z,26.92
2023-03-06T18:09:10.268Z,28.00
2023-03-06T18:11:37.375Z,27.88
2023-03-06T18:14:05.528Z,27.84
2023-03-06T18:16:32.499Z,27.86
2023-03-06T18:18:59.258Z,28.60
2023-03-06T18:21:26.435Z,28.16
2023-03-06T18:23:53.121Z,28.71
2023-03-06T18:26:27.362Z,28.95
2023-03-06T18:28:55.460Z,29.51
2023-03-06T18:31:24.506Z,29.32
2023-03-06T18:33:55.886Z,29.79
2023-03-06T18:36:24.102Z,30.01
2023-03-06T18:38:51.048Z,29.52
2023-03-06T18:41:18.416Z,30.42
2023-03-06T18:43:51.076Z,29.71
2023-03-06T18:46:17.889Z,29.36
2023-03-06T18:48:44.837Z,29.64
2023-03-06T18:51:12.062Z,30.09
2023-03-06T18:53:40.104Z,30.77
2023-03-06T18:56:07.528Z,31.34
2023-03-06T18:58:35.453Z,30.35
2023-03-06T19:01:07.518Z,30.04
2023-03-06T19:03:35.570Z,30.09
2023-03-06T19:06:06.831Z,31.23
2023-03-06T19:08:33.794Z,30.98
2023-03-06T19:11:02.039Z,31.36
2023-03-06T19:13:28.816Z,32.47
2023-03-06T19:15:57.105Z,32.19
2023-03-06T19:18:24.546Z,31.77
2023-03-06T19:20:51.248Z,32.60
2023-03-06T19:23:18.033Z,31.91
2023-03-06T19:25:54.657Z,32.23
2023-03-06T19:28:21.334Z,31.93
2023-03-06T19:30:48.038Z,31.73
2023-03-06T19:33:15.577Z,31.53
2023-03-06T19:35:42.406Z,32.07
2023-03-06T19:38:10.115Z,32.86
2023-03-06T19:40:37.177Z,31.34
2023-03-06T19:43:03.904Z,31.57
2023-03-06T19:45:30.535Z,32.01
2023-03-06T19:48:00.898Z,32.74
2023-03-06T19:50:30.528Z,32.55
2023-03-06T19:52:57.382Z,32.09
2023-03-06T19:55:26.461Z,31.14
2023-03-06T19:57:53.842Z,31.99
2023-03-06T20:00:20.679Z,31.47
2023-03-06T20:02:49.645Z,31.89
2023-03-06T20:05:16.694Z,31.87
2023-03-06T20:07:43.429Z,32.07
2023-03-06T20:10:10.730Z,32.65
2023-03-06T20:12:37.466Z,31.94
2023-03-06T20:15:04.432Z,32.30
2023-03-06T20:17:32.687Z,32.09
2023-03-06T20:19:59.645Z,32.18
2023-03-06T20:22:26.333Z,32.68
2023-03-06T20:24:53.018Z,32.34
2023-03-06T20:27:19.685Z,32.14
2023-03-06T20:29:46.954Z,32.71
2023-03-06T20:32:13.803Z,32.49
2023-03-06T20:34:40.797Z,32.43
2023-03-06T20:37:08.027Z,32.79
2023-03-06T20:39:34.760Z,32.52
2023-03-06T20:42:01.944Z,33.15
2023-03-06T20:44:28.859Z,32.68
2023-03-06T20:46:55.746Z,33.20
2023-03-06T20:49:22.484Z,33.26
2023-03-06T20:51:49.995Z,33.80
2023-03-06T20:54:18.192Z,33.55
2023-03-06T20:56:47.573Z,33.69
2023-03-06T20:59:14.838Z,34.23
2023-03-06T21:01:42.914Z,34.07
2023-03-06T21:04:10.628Z,34.65
2023-03-06T21:06:37.659Z,35.01
2023-03-06T21:09:05.353Z,35.32
2023-03-06T21:11:33.485Z,34.90
2023-03-06T21:14:00.993Z,34.89
2023-03-06T21:16:29.008Z,34.63
2023-03-06T21:18:55.865Z,34.69
2023-03-06T21:21:24.216Z,34.83
2023-03-06T21:23:51.196Z,34.67
2023-03-06T21:26:19.202Z,35.00
2023-03-06T21:28:46.275Z,35.99
2023-03-06T21:31:13.985Z,34.72
2023-03-06T21:33:41.056Z,35.34
2023-03-06T21:36:08.580Z,35.42
2023-03-06T21:38:35.548Z,35.44
2023-03-06T21:41:09.444Z,36.24
2023-03-06T21:43:36.151Z,35.63
2023-03-06T21:46:04.024Z,35.84
2023-03-06T21:48:30.735Z,35.61
2023-03-06T21:51:11.484Z,36.31
2023-03-06T21:53:41.579Z,36.50
2023-03-06T21:56:08.483Z,36.94
2023-03-06T21:58:35.206Z,37.17
2023-03-06T22:01:02.050Z,36.51
2023-03-06T22:03:29.132Z,36.76
2023-03-06T22:05:56.640Z,36.47
2023-03-06T22:08:25.171Z,36.84
2023-03-06T22:10:51.827Z,36.74
2023-03-06T22:13:19.217Z,36.67
2023-03-06T22:15:49.913Z,36.92
2023-03-06T22:18:16.677Z,36.78
2023-03-06T22:20:43.345Z,36.94
2023-03-06T22:23:10.273Z,37.59
2023-03-06T22:25:36.855Z,36.85
2023-03-06T22:28:03.693Z,37.48
2023-03-06T22:30:30.362Z,37.43
2023-03-06T22:32:57.106Z,37.33
2023-03-06T22:35:23.844Z,37.35
2023-03-06T22:37:50.612Z,38.08
2023-03-06T22:40:17.361Z,37.54
2023-03-06T22:42:44.041Z,38.00
2023-03-06T22:45:11.880Z,37.72
2023-03-06T22:47:38.461Z,38.05
2023-03-06T22:50:05.809Z,37.92
2023-03-06T22:52:32.773Z,37.91
2023-03-06T22:54:59.465Z,38.06
2023-03-06T22:57:25.978Z,38.57
2023-03-06T22:59:52.582Z,38.16
2023-03-06T23:02:19.196Z,38.47
2023-03-06T23:04:52.066Z,37.53
2023-03-06T23:07:19.654Z,37.99
2023-03-06T23:09:47.388Z,37.66
2023-03-06T23:12:32.701Z,37.67
2023-03-06T23:15:17.885Z,37.42
2023-03-06T23:18:04.239Z,37.50
2023-03-06T23:20:50.208Z,37.32
2023-03-06T23:23:35.768Z,37.87
2023-03-06T23:26:04.006Z,37.39
2023-03-06T23:28:30.735Z,38.13
2023-03-06T23:30:57.780Z,37.59
2023-03-06T23:33:24.567Z,37.57
2023-03-06T23:35:51.451Z,37.97
2023-03-06T23:38:18.263Z,37.96
2023-03-06T23:40:45.112Z,38.36
2023-03-06T23:43:11.698Z,38.19
2023-03-06T23:45:38.365Z,38.81
2023-03-06T23:48:06.068Z,38.46
2023-03-06T23:50:32.689Z,37.91
2023-03-06T23:52:59.361Z,39.45
2023-03-06T23:55:25.965Z,38.72
2023-03-06T23:57:52.679Z,38.78
